sensor_id;sensor_type;location;lat;lon;timestamp;P1;durP1;ratioP1;P2;durP2;ratioP2
31920;SDS011;66485;52.128;4.436;2023-07-13T00:00:52;6.28;;;1.98;;
31920;SDS011;66485;52.128;4.436;2023-07-13T00:03:18;5.03;;;1.58;;
31920;SDS011;66485;52.128;4.436;2023-07-13T00:05:43;4.47;;;1.70;;
31920;SDS011;66485;52.128;4.436;2023-07-13T00:08:09;3.63;;;1.58;;
31920;SDS011;66485;52.128;4.436;2023-07-13T00:10:42;9.18;;;1.92;;
31920;SDS011;66485;52.128;4.436;2023-07-13T00:13:08;5.22;;;1.45;;
31920;SDS011;66485;52.128;4.436;2023-07-13T00:15:34;4.05;;;1.77;;
31920;SDS011;66485;52.128;4.436;2023-07-13T00:18:00;4.15;;;1.55;;
31920;SDS011;66485;52.128;4.436;2023-07-13T00:20:26;4.38;;;1.67;;
31920;SDS011;66485;52.128;4.436;2023-07-13T00:22:52;4.18;;;1.60;;
31920;SDS011;66485;52.128;4.436;2023-07-13T00:25:18;3.85;;;1.73;;
31920;SDS011;66485;52.128;4.436;2023-07-13T00:27:49;4.47;;;1.77;;
31920;SDS011;66485;52.128;4.436;2023-07-13T00:30:15;3.10;;;1.50;;
31920;SDS011;66485;52.128;4.436;2023-07-13T00:32:41;4.75;;;1.70;;
31920;SDS011;66485;52.128;4.436;2023-07-13T00:35:07;4.38;;;1.50;;
31920;SDS011;66485;52.128;4.436;2023-07-13T00:37:32;3.67;;;1.52;;
31920;SDS011;66485;52.128;4.436;2023-07-13T00:40:01;2.97;;;1.55;;
31920;SDS011;66485;52.128;4.436;2023-07-13T00:42:30;4.53;;;1.65;;
31920;SDS011;66485;52.128;4.436;2023-07-13T00:47:36;5.43;;;1.70;;
31920;SDS011;66485;52.128;4.436;2023-07-13T00:50:02;3.45;;;1.48;;
31920;SDS011;66485;52.128;4.436;2023-07-13T00:52:31;4.22;;;1.40;;
31920;SDS011;66485;52.128;4.436;2023-07-13T00:54:57;3.20;;;1.52;;
31920;SDS011;66485;52.128;4.436;2023-07-13T00:57:23;4.38;;;1.60;;
31920;SDS011;66485;52.128;4.436;2023-07-13T00:59:51;3.95;;;1.20;;
31920;SDS011;66485;52.128;4.436;2023-07-13T01:04:46;3.63;;;1.40;;
31920;SDS011;66485;52.128;4.436;2023-07-13T01:07:13;4.22;;;1.70;;
31920;SDS011;66485;52.128;4.436;2023-07-13T01:09:38;3.78;;;1.60;;
31920;SDS011;66485;52.128;4.436;2023-07-13T01:12:04;4.88;;;1.60;;
31920;SDS011;66485;52.128;4.436;2023-07-13T01:14:30;3.50;;;1.55;;
31920;SDS011;66485;52.128;4.436;2023-07-13T01:16:55;4.82;;;1.73;;
31920;SDS011;66485;52.128;4.436;2023-07-13T01:19:38;3.72;;;1.50;;
31920;SDS011;66485;52.128;4.436;2023-07-13T01:22:08;3.53;;;1.67;;
31920;SDS011;66485;52.128;4.436;2023-07-13T01:24:41;4.82;;;1.92;;
31920;SDS011;66485;52.128;4.436;2023-07-13T01:27:08;2.95;;;1.58;;
31920;SDS011;66485;52.128;4.436;2023-07-13T01:29:36;3.72;;;1.60;;
31920;SDS011;66485;52.128;4.436;2023-07-13T01:32:09;2.53;;;1.30;;
31920;SDS011;66485;52.128;4.436;2023-07-13T01:34:38;4.07;;;1.42;;
31920;SDS011;66485;52.128;4.436;2023-07-13T01:37:08;4.03;;;1.60;;
31920;SDS011;66485;52.128;4.436;2023-07-13T01:39:34;3.30;;;1.52;;
31920;SDS011;66485;52.128;4.436;2023-07-13T01:42:00;3.80;;;1.40;;
31920;SDS011;66485;52.128;4.436;2023-07-13T01:44:25;3.90;;;1.15;;
31920;SDS011;66485;52.128;4.436;2023-07-13T01:46:51;2.95;;;1.58;;
31920;SDS011;66485;52.128;4.436;2023-07-13T01:49:16;3.45;;;1.55;;
31920;SDS011;66485;52.128;4.436;2023-07-13T01:51:42;2.92;;;1.55;;
31920;SDS011;66485;52.128;4.436;2023-07-13T01:54:07;2.17;;;1.20;;
31920;SDS011;66485;52.128;4.436;2023-07-13T01:56:33;2.20;;;1.33;;
31920;SDS011;66485;52.128;4.436;2023-07-13T01:58:58;3.25;;;1.33;;
31920;SDS011;66485;52.128;4.436;2023-07-13T02:01:24;2.78;;;1.30;;
31920;SDS011;66485;52.128;4.436;2023-07-13T02:03:49;3.20;;;1.70;;
31920;SDS011;66485;52.128;4.436;2023-07-13T02:06:14;2.53;;;1.27;;
31920;SDS011;66485;52.128;4.436;2023-07-13T02:08:40;3.75;;;1.40;;
31920;SDS011;66485;52.128;4.436;2023-07-13T02:11:07;3.58;;;1.40;;
31920;SDS011;66485;52.128;4.436;2023-07-13T02:13:33;2.83;;;1.15;;
31920;SDS011;66485;52.128;4.436;2023-07-13T02:15:59;4.20;;;1.40;;
31920;SDS011;66485;52.128;4.436;2023-07-13T02:18:25;2.78;;;1.23;;
31920;SDS011;66485;52.128;4.436;2023-07-13T02:20:50;2.85;;;1.27;;
31920;SDS011;66485;52.128;4.436;2023-07-13T02:23:15;2.80;;;1.42;;
31920;SDS011;66485;52.128;4.436;2023-07-13T02:25:41;3.58;;;1.20;;
31920;SDS011;66485;52.128;4.436;2023-07-13T02:28:06;2.50;;;1.30;;
31920;SDS011;66485;52.128;4.436;2023-07-13T02:30:32;2.83;;;1.10;;
31920;SDS011;66485;52.128;4.436;2023-07-13T02:32:57;4.18;;;1.58;;
31920;SDS011;66485;52.128;4.436;2023-07-13T02:35:23;2.67;;;1.50;;
31920;SDS011;66485;52.128;4.436;2023-07-13T02:37:48;1.60;;;1.02;;
31920;SDS011;66485;52.128;4.436;2023-07-13T02:40:14;3.25;;;1.33;;
31920;SDS011;66485;52.128;4.436;2023-07-13T02:42:40;3.40;;;1.38;;
31920;SDS011;66485;52.128;4.436;2023-07-13T02:45:06;3.28;;;1.48;;
31920;SDS011;66485;52.128;4.436;2023-07-13T02:47:33;3.40;;;1.42;;
31920;SDS011;66485;52.128;4.436;2023-07-13T02:49:58;2.33;;;1.02;;
31920;SDS011;66485;52.128;4.436;2023-07-13T02:52:24;2.78;;;1.27;;
31920;SDS011;66485;52.128;4.436;2023-07-13T02:54:50;3.15;;;1.23;;
31920;SDS011;66485;52.128;4.436;2023-07-13T02:57:15;2.38;;;1.30;;
31920;SDS011;66485;52.128;4.436;2023-07-13T02:59:41;3.20;;;1.35;;
31920;SDS011;66485;52.128;4.436;2023-07-13T03:02:07;2.97;;;1.00;;
31920;SDS011;66485;52.128;4.436;2023-07-13T03:04:32;3.45;;;1.20;;
31920;SDS011;66485;52.128;4.436;2023-07-13T03:06:57;2.55;;;1.17;;
31920;SDS011;66485;52.128;4.436;2023-07-13T03:09:23;2.65;;;1.30;;
31920;SDS011;66485;52.128;4.436;2023-07-13T03:11:51;2.35;;;1.35;;
31920;SDS011;66485;52.128;4.436;2023-07-13T03:14:18;1.88;;;1.15;;
31920;SDS011;66485;52.128;4.436;2023-07-13T03:16:44;2.72;;;1.20;;
31920;SDS011;66485;52.128;4.436;2023-07-13T03:19:09;2.42;;;1.15;;
31920;SDS011;66485;52.128;4.436;2023-07-13T03:21:34;2.17;;;1.10;;
31920;SDS011;66485;52.128;4.436;2023-07-13T03:24:00;2.40;;;1.45;;
31920;SDS011;66485;52.128;4.436;2023-07-13T03:26:25;2.20;;;1.02;;
31920;SDS011;66485;52.128;4.436;2023-07-13T03:28:50;2.15;;;0.95;;
31920;SDS011;66485;52.128;4.436;2023-07-13T03:31:20;4.32;;;1.10;;
31920;SDS011;66485;52.128;4.436;2023-07-13T03:36:14;2.53;;;1.20;;
31920;SDS011;66485;52.128;4.436;2023-07-13T03:38:44;3.33;;;1.25;;
31920;SDS011;66485;52.128;4.436;2023-07-13T03:41:14;1.58;;;0.90;;
31920;SDS011;66485;52.128;4.436;2023-07-13T03:43:39;2.47;;;1.20;;
31920;SDS011;66485;52.128;4.436;2023-07-13T03:46:05;2.03;;;1.00;;
31920;SDS011;66485;52.128;4.436;2023-07-13T03:48:30;1.58;;;1.00;;
31920;SDS011;66485;52.128;4.436;2023-07-13T03:50:56;2.35;;;1.10;;
31920;SDS011;66485;52.128;4.436;2023-07-13T03:53:21;2.10;;;1.10;;
31920;SDS011;66485;52.128;4.436;2023-07-13T03:55:46;3.08;;;1.40;;
31920;SDS011;66485;52.128;4.436;2023-07-13T03:58:29;2.83;;;1.02;;
31920;SDS011;66485;52.128;4.436;2023-07-13T04:00:57;2.17;;;1.20;;
31920;SDS011;66485;52.128;4.436;2023-07-13T04:03:24;1.88;;;1.17;;
31920;SDS011;66485;52.128;4.436;2023-07-13T04:05:50;2.47;;;1.25;;
31920;SDS011;66485;52.128;4.436;2023-07-13T04:08:15;1.98;;;1.10;;
31920;SDS011;66485;52.128;4.436;2023-07-13T04:10:41;2.10;;;1.20;;
31920;SDS011;66485;52.128;4.436;2023-07-13T04:13:07;2.08;;;1.00;;
31920;SDS011;66485;52.128;4.436;2023-07-13T04:15:33;2.03;;;1.00;;
31920;SDS011;66485;52.128;4.436;2023-07-13T04:17:59;2.42;;;1.20;;
31920;SDS011;66485;52.128;4.436;2023-07-13T04:20:25;2.33;;;1.38;;
31920;SDS011;66485;52.128;4.436;2023-07-13T04:22:51;2.58;;;1.20;;
31920;SDS011;66485;52.128;4.436;2023-07-13T04:25:18;1.83;;;1.15;;
31920;SDS011;66485;52.128;4.436;2023-07-13T04:27:44;2.35;;;1.10;;
31920;SDS011;66485;52.128;4.436;2023-07-13T04:30:09;3.45;;;1.30;;
31920;SDS011;66485;52.128;4.436;2023-07-13T04:32:35;2.45;;;1.00;;
31920;SDS011;66485;52.128;4.436;2023-07-13T04:35:00;2.47;;;1.40;;
31920;SDS011;66485;52.128;4.436;2023-07-13T04:37:26;2.20;;;1.20;;
31920;SDS011;66485;52.128;4.436;2023-07-13T04:39:52;1.80;;;1.00;;
31920;SDS011;66485;52.128;4.436;2023-07-13T04:42:18;2.70;;;1.33;;
31920;SDS011;66485;52.128;4.436;2023-07-13T04:44:48;2.33;;;1.02;;
31920;SDS011;66485;52.128;4.436;2023-07-13T04:47:14;3.20;;;1.20;;
31920;SDS011;66485;52.128;4.436;2023-07-13T04:49:40;2.05;;;1.05;;
31920;SDS011;66485;52.128;4.436;2023-07-13T04:52:05;2.20;;;1.13;;
31920;SDS011;66485;52.128;4.436;2023-07-13T04:54:32;2.13;;;1.10;;
31920;SDS011;66485;52.128;4.436;2023-07-13T04:56:58;1.42;;;0.90;;
31920;SDS011;66485;52.128;4.436;2023-07-13T04:59:24;2.10;;;0.90;;
31920;SDS011;66485;52.128;4.436;2023-07-13T05:01:49;2.17;;;1.10;;
31920;SDS011;66485;52.128;4.436;2023-07-13T05:04:15;2.15;;;1.00;;
31920;SDS011;66485;52.128;4.436;2023-07-13T05:06:40;3.55;;;1.20;;
31920;SDS011;66485;52.128;4.436;2023-07-13T05:09:05;2.90;;;1.00;;
31920;SDS011;66485;52.128;4.436;2023-07-13T05:11:32;3.47;;;1.30;;
31920;SDS011;66485;52.128;4.436;2023-07-13T05:13:57;3.13;;;1.00;;
31920;SDS011;66485;52.128;4.436;2023-07-13T05:16:23;2.53;;;1.00;;
31920;SDS011;66485;52.128;4.436;2023-07-13T05:18:48;2.45;;;1.38;;
31920;SDS011;66485;52.128;4.436;2023-07-13T05:21:14;2.05;;;1.05;;
31920;SDS011;66485;52.128;4.436;2023-07-13T05:23:39;2.00;;;1.00;;
31920;SDS011;66485;52.128;4.436;2023-07-13T05:26:08;2.15;;;1.10;;
31920;SDS011;66485;52.128;4.436;2023-07-13T05:28:33;1.80;;;1.00;;
31920;SDS011;66485;52.128;4.436;2023-07-13T05:30:59;3.28;;;1.27;;
31920;SDS011;66485;52.128;4.436;2023-07-13T05:33:25;3.80;;;1.20;;
31920;SDS011;66485;52.128;4.436;2023-07-13T05:35:51;3.42;;;1.20;;
31920;SDS011;66485;52.128;4.436;2023-07-13T05:38:16;2.85;;;1.60;;
31920;SDS011;66485;52.128;4.436;2023-07-13T05:40:42;2.05;;;1.00;;
31920;SDS011;66485;52.128;4.436;2023-07-13T05:43:09;2.10;;;1.08;;
31920;SDS011;66485;52.128;4.436;2023-07-13T05:45:34;2.67;;;1.10;;
31920;SDS011;66485;52.128;4.436;2023-07-13T05:48:00;3.25;;;1.20;;
31920;SDS011;66485;52.128;4.436;2023-07-13T05:50:25;2.67;;;1.10;;
31920;SDS011;66485;52.128;4.436;2023-07-13T05:52:51;2.63;;;1.13;;
31920;SDS011;66485;52.128;4.436;2023-07-13T05:55:17;1.88;;;1.15;;
31920;SDS011;66485;52.128;4.436;2023-07-13T05:57:43;2.25;;;1.27;;
31920;SDS011;66485;52.128;4.436;2023-07-13T06:00:08;2.95;;;1.15;;
31920;SDS011;66485;52.128;4.436;2023-07-13T06:02:35;3.10;;;1.17;;
31920;SDS011;66485;52.128;4.436;2023-07-13T06:05:00;2.45;;;1.15;;
31920;SDS011;66485;52.128;4.436;2023-07-13T06:07:26;2.47;;;1.10;;
31920;SDS011;66485;52.128;4.436;2023-07-13T06:09:51;3.95;;;1.33;;
31920;SDS011;66485;52.128;4.436;2023-07-13T06:12:17;2.50;;;1.42;;
31920;SDS011;66485;52.128;4.436;2023-07-13T06:14:42;2.97;;;1.10;;
31920;SDS011;66485;52.128;4.436;2023-07-13T06:17:08;2.08;;;1.10;;
31920;SDS011;66485;52.128;4.436;2023-07-13T06:19:33;1.90;;;1.20;;
31920;SDS011;66485;52.128;4.436;2023-07-13T06:21:59;2.90;;;1.27;;
31920;SDS011;66485;52.128;4.436;2023-07-13T06:24:25;2.63;;;1.20;;
31920;SDS011;66485;52.128;4.436;2023-07-13T06:26:51;2.80;;;1.05;;
31920;SDS011;66485;52.128;4.436;2023-07-13T06:29:16;3.13;;;1.27;;
31920;SDS011;66485;52.128;4.436;2023-07-13T06:31:42;3.40;;;1.15;;
31920;SDS011;66485;52.128;4.436;2023-07-13T06:34:08;2.67;;;1.10;;
31920;SDS011;66485;52.128;4.436;2023-07-13T06:36:33;1.85;;;1.02;;
31920;SDS011;66485;52.128;4.436;2023-07-13T06:38:59;2.88;;;1.65;;
31920;SDS011;66485;52.128;4.436;2023-07-13T06:41:24;2.05;;;1.20;;
31920;SDS011;66485;52.128;4.436;2023-07-13T06:43:53;2.83;;;1.25;;
31920;SDS011;66485;52.128;4.436;2023-07-13T06:46:20;4.28;;;1.38;;
31920;SDS011;66485;52.128;4.436;2023-07-13T06:48:46;3.95;;;1.20;;
31920;SDS011;66485;52.128;4.436;2023-07-13T06:51:12;3.92;;;1.52;;
31920;SDS011;66485;52.128;4.436;2023-07-13T06:53:37;2.75;;;1.30;;
31920;SDS011;66485;52.128;4.436;2023-07-13T06:56:03;2.88;;;1.30;;
31920;SDS011;66485;52.128;4.436;2023-07-13T06:58:28;2.70;;;1.10;;
31920;SDS011;66485;52.128;4.436;2023-07-13T07:00:54;2.85;;;1.30;;
31920;SDS011;66485;52.128;4.436;2023-07-13T07:03:19;5.05;;;1.50;;
31920;SDS011;66485;52.128;4.436;2023-07-13T07:05:45;2.13;;;1.30;;
31920;SDS011;66485;52.128;4.436;2023-07-13T07:08:10;2.53;;;1.30;;
31920;SDS011;66485;52.128;4.436;2023-07-13T07:10:36;1.83;;;1.10;;
31920;SDS011;66485;52.128;4.436;2023-07-13T07:13:02;2.72;;;1.40;;
31920;SDS011;66485;52.128;4.436;2023-07-13T07:15:28;2.42;;;1.27;;
31920;SDS011;66485;52.128;4.436;2023-07-13T07:17:54;2.53;;;1.23;;
31920;SDS011;66485;52.128;4.436;2023-07-13T07:20:20;2.00;;;0.93;;
31920;SDS011;66485;52.128;4.436;2023-07-13T07:22:45;2.88;;;1.20;;
31920;SDS011;66485;52.128;4.436;2023-07-13T07:25:11;2.70;;;1.35;;
31920;SDS011;66485;52.128;4.436;2023-07-13T07:27:37;5.80;;;1.30;;
31920;SDS011;66485;52.128;4.436;2023-07-13T07:30:02;2.55;;;1.30;;
31920;SDS011;66485;52.128;4.436;2023-07-13T07:32:29;3.22;;;1.30;;
31920;SDS011;66485;52.128;4.436;2023-07-13T07:34:56;2.80;;;1.08;;
31920;SDS011;66485;52.128;4.436;2023-07-13T07:37:22;1.58;;;1.10;;
31920;SDS011;66485;52.128;4.436;2023-07-13T07:39:47;2.17;;;1.20;;
31920;SDS011;66485;52.128;4.436;2023-07-13T07:42:13;3.35;;;1.58;;
31920;SDS011;66485;52.128;4.436;2023-07-13T07:44:39;1.98;;;1.27;;
31920;SDS011;66485;52.128;4.436;2023-07-13T07:47:06;2.40;;;1.13;;
31920;SDS011;66485;52.128;4.436;2023-07-13T07:49:31;2.33;;;1.40;;
31920;SDS011;66485;52.128;4.436;2023-07-13T07:51:57;3.08;;;1.27;;
31920;SDS011;66485;52.128;4.436;2023-07-13T07:54:22;3.08;;;1.20;;
31920;SDS011;66485;52.128;4.436;2023-07-13T07:56:48;7.43;;;1.63;;
31920;SDS011;66485;52.128;4.436;2023-07-13T07:59:14;3.17;;;1.33;;
31920;SDS011;66485;52.128;4.436;2023-07-13T08:01:39;4.60;;;1.52;;
31920;SDS011;66485;52.128;4.436;2023-07-13T08:04:05;3.80;;;1.42;;
31920;SDS011;66485;52.128;4.436;2023-07-13T08:06:33;3.10;;;1.42;;
31920;SDS011;66485;52.128;4.436;2023-07-13T08:08:59;2.85;;;1.35;;
31920;SDS011;66485;52.128;4.436;2023-07-13T08:11:25;2.42;;;1.27;;
31920;SDS011;66485;52.128;4.436;2023-07-13T08:13:51;2.38;;;1.25;;
31920;SDS011;66485;52.128;4.436;2023-07-13T08:16:16;3.65;;;1.63;;
31920;SDS011;66485;52.128;4.436;2023-07-13T08:18:41;2.72;;;1.30;;
31920;SDS011;66485;52.128;4.436;2023-07-13T08:21:07;3.33;;;1.33;;
31920;SDS011;66485;52.128;4.436;2023-07-13T08:23:33;3.20;;;1.35;;
31920;SDS011;66485;52.128;4.436;2023-07-13T08:25:59;2.40;;;1.48;;
31920;SDS011;66485;52.128;4.436;2023-07-13T08:28:26;4.22;;;1.60;;
31920;SDS011;66485;52.128;4.436;2023-07-13T08:30:52;3.75;;;1.67;;
31920;SDS011;66485;52.128;4.436;2023-07-13T08:33:18;3.00;;;1.33;;
31920;SDS011;66485;52.128;4.436;2023-07-13T08:35:45;1.90;;;1.27;;
31920;SDS011;66485;52.128;4.436;2023-07-13T08:38:12;2.33;;;1.20;;
31920;SDS011;66485;52.128;4.436;2023-07-13T08:40:38;3.72;;;1.75;;
31920;SDS011;66485;52.128;4.436;2023-07-13T08:43:06;2.97;;;1.23;;
31920;SDS011;66485;52.128;4.436;2023-07-13T08:45:52;4.93;;;1.80;;
31920;SDS011;66485;52.128;4.436;2023-07-13T08:48:32;2.20;;;1.30;;
31920;SDS011;66485;52.128;4.436;2023-07-13T08:51:09;3.22;;;1.70;;
31920;SDS011;66485;52.128;4.436;2023-07-13T08:53:47;4.53;;;1.50;;
31920;SDS011;66485;52.128;4.436;2023-07-13T08:56:22;3.55;;;1.70;;
31920;SDS011;66485;52.128;4.436;2023-07-13T08:58:55;4.05;;;1.50;;
31920;SDS011;66485;52.128;4.436;2023-07-13T09:04:16;2.50;;;1.40;;
31920;SDS011;66485;52.128;4.436;2023-07-13T09:14:49;2.88;;;1.42;;
31920;SDS011;66485;52.128;4.436;2023-07-13T09:17:18;4.15;;;1.50;;
31920;SDS011;66485;52.128;4.436;2023-07-13T09:19:51;3.15;;;1.52;;
31920;SDS011;66485;52.128;4.436;2023-07-13T09:22:24;3.38;;;1.40;;
31920;SDS011;66485;52.128;4.436;2023-07-13T09:24:57;2.90;;;1.60;;
31920;SDS011;66485;52.128;4.436;2023-07-13T09:27:31;2.33;;;1.30;;
31920;SDS011;66485;52.128;4.436;2023-07-13T09:30:11;2.88;;;1.38;;
31920;SDS011;66485;52.128;4.436;2023-07-13T09:32:50;4.05;;;1.73;;
31920;SDS011;66485;52.128;4.436;2023-07-13T09:35:19;2.88;;;1.35;;
31920;SDS011;66485;52.128;4.436;2023-07-13T09:37:47;2.55;;;1.60;;
31920;SDS011;66485;52.128;4.436;2023-07-13T09:43:13;4.18;;;1.70;;
31920;SDS011;66485;52.128;4.436;2023-07-13T09:45:40;2.35;;;1.67;;
31920;SDS011;66485;52.128;4.436;2023-07-13T09:48:07;3.47;;;1.70;;
31920;SDS011;66485;52.128;4.436;2023-07-13T09:50:37;3.40;;;1.73;;
31920;SDS011;66485;52.128;4.436;2023-07-13T09:53:03;3.97;;;1.83;;
31920;SDS011;66485;52.128;4.436;2023-07-13T09:55:30;4.45;;;1.63;;
31920;SDS011;66485;52.128;4.436;2023-07-13T10:00:40;2.90;;;1.70;;
31920;SDS011;66485;52.128;4.436;2023-07-13T10:03:21;4.80;;;1.80;;
31920;SDS011;66485;52.128;4.436;2023-07-13T10:05:49;4.38;;;1.85;;
31920;SDS011;66485;52.128;4.436;2023-07-13T10:08:37;2.80;;;1.60;;
31920;SDS011;66485;52.128;4.436;2023-07-13T10:11:18;3.28;;;1.80;;
31920;SDS011;66485;52.128;4.436;2023-07-13T10:13:54;2.58;;;1.50;;
31920;SDS011;66485;52.128;4.436;2023-07-13T10:16:26;6.55;;;2.08;;
31920;SDS011;66485;52.128;4.436;2023-07-13T10:18:58;4.28;;;1.92;;
31920;SDS011;66485;52.128;4.436;2023-07-13T10:21:28;3.90;;;1.90;;
31920;SDS011;66485;52.128;4.436;2023-07-13T10:23:59;3.03;;;1.30;;
31920;SDS011;66485;52.128;4.436;2023-07-13T10:26:32;3.58;;;1.63;;
31920;SDS011;66485;52.128;4.436;2023-07-13T10:29:04;3.60;;;1.67;;
31920;SDS011;66485;52.128;4.436;2023-07-13T10:31:34;5.07;;;1.88;;
31920;SDS011;66485;52.128;4.436;2023-07-13T10:34:03;2.70;;;1.50;;
31920;SDS011;66485;52.128;4.436;2023-07-13T10:36:40;3.25;;;1.58;;
31920;SDS011;66485;52.128;4.436;2023-07-13T10:39:09;2.53;;;1.70;;
31920;SDS011;66485;52.128;4.436;2023-07-13T10:41:40;2.80;;;1.48;;
31920;SDS011;66485;52.128;4.436;2023-07-13T10:44:18;3.20;;;2.05;;
31920;SDS011;66485;52.128;4.436;2023-07-13T10:46:51;3.35;;;1.70;;
31920;SDS011;66485;52.128;4.436;2023-07-13T10:49:19;2.97;;;1.67;;
31920;SDS011;66485;52.128;4.436;2023-07-13T10:51:45;4.97;;;1.75;;
31920;SDS011;66485;52.128;4.436;2023-07-13T10:54:16;4.43;;;1.88;;
31920;SDS011;66485;52.128;4.436;2023-07-13T10:56:44;2.83;;;1.50;;
31920;SDS011;66485;52.128;4.436;2023-07-13T11:04:14;3.45;;;1.70;;
31920;SDS011;66485;52.128;4.436;2023-07-13T11:06:40;3.80;;;1.77;;
31920;SDS011;66485;52.128;4.436;2023-07-13T11:09:42;4.82;;;1.73;;
31920;SDS011;66485;52.128;4.436;2023-07-13T11:27:52;4.70;;;1.80;;
31920;SDS011;66485;52.128;4.436;2023-07-13T11:30:42;3.65;;;1.77;;
31920;SDS011;66485;52.128;4.436;2023-07-13T11:41:03;5.03;;;2.03;;
31920;SDS011;66485;52.128;4.436;2023-07-13T11:43:50;4.03;;;1.92;;
31920;SDS011;66485;52.128;4.436;2023-07-13T11:46:26;2.75;;;1.60;;
31920;SDS011;66485;52.128;4.436;2023-07-13T11:48:53;2.42;;;1.52;;
31920;SDS011;66485;52.128;4.436;2023-07-13T11:51:23;3.35;;;1.77;;
31920;SDS011;66485;52.128;4.436;2023-07-13T11:53:52;3.75;;;2.05;;
31920;SDS011;66485;52.128;4.436;2023-07-13T11:56:19;4.13;;;1.90;;
31920;SDS011;66485;52.128;4.436;2023-07-13T11:58:47;3.30;;;1.90;;
31920;SDS011;66485;52.128;4.436;2023-07-13T12:01:20;2.92;;;1.60;;
31920;SDS011;66485;52.128;4.436;2023-07-13T12:03:47;5.55;;;2.00;;
31920;SDS011;66485;52.128;4.436;2023-07-13T12:06:47;4.40;;;1.73;;
31920;SDS011;66485;52.128;4.436;2023-07-13T12:09:11;4.22;;;1.75;;
31920;SDS011;66485;52.128;4.436;2023-07-13T12:11:40;4.72;;;1.80;;
31920;SDS011;66485;52.128;4.436;2023-07-13T12:14:10;3.55;;;1.90;;
31920;SDS011;66485;52.128;4.436;2023-07-13T12:16:38;3.35;;;1.70;;
31920;SDS011;66485;52.128;4.436;2023-07-13T12:19:09;4.18;;;1.80;;
31920;SDS011;66485;52.128;4.436;2023-07-13T12:21:43;4.28;;;2.08;;
31920;SDS011;66485;52.128;4.436;2023-07-13T12:24:13;5.70;;;2.03;;
31920;SDS011;66485;52.128;4.436;2023-07-13T12:26:41;4.47;;;1.92;;
31920;SDS011;66485;52.128;4.436;2023-07-13T12:29:07;3.10;;;1.95;;
31920;SDS011;66485;52.128;4.436;2023-07-13T12:31:36;2.97;;;1.70;;
31920;SDS011;66485;52.128;4.436;2023-07-13T12:34:13;3.83;;;1.92;;
31920;SDS011;66485;52.128;4.436;2023-07-13T12:39:22;4.50;;;1.95;;
31920;SDS011;66485;52.128;4.436;2023-07-13T12:41:50;3.42;;;1.83;;
31920;SDS011;66485;52.128;4.436;2023-07-13T12:44:39;5.15;;;1.80;;
31920;SDS011;66485;52.128;4.436;2023-07-13T12:47:06;3.35;;;1.70;;
31920;SDS011;66485;52.128;4.436;2023-07-13T12:49:40;5.68;;;2.15;;
31920;SDS011;66485;52.128;4.436;2023-07-13T12:52:14;2.85;;;1.67;;
31920;SDS011;66485;52.128;4.436;2023-07-13T12:54:59;4.03;;;1.90;;
31920;SDS011;66485;52.128;4.436;2023-07-13T12:57:29;3.38;;;1.95;;
31920;SDS011;66485;52.128;4.436;2023-07-13T12:59:55;3.67;;;2.00;;
31920;SDS011;66485;52.128;4.436;2023-07-13T13:02:30;3.65;;;1.80;;
31920;SDS011;66485;52.128;4.436;2023-07-13T13:04:59;5.95;;;1.98;;
31920;SDS011;66485;52.128;4.436;2023-07-13T13:07:25;3.20;;;1.90;;
31920;SDS011;66485;52.128;4.436;2023-07-13T13:09:51;3.60;;;2.03;;
31920;SDS011;66485;52.128;4.436;2023-07-13T13:12:19;5.22;;;1.88;;
31920;SDS011;66485;52.128;4.436;2023-07-13T13:14:45;5.43;;;2.00;;
31920;SDS011;66485;52.128;4.436;2023-07-13T13:17:20;3.90;;;1.90;;
31920;SDS011;66485;52.128;4.436;2023-07-13T13:19:52;3.67;;;2.08;;
31920;SDS011;66485;52.128;4.436;2023-07-13T13:22:19;4.47;;;1.90;;
31920;SDS011;66485;52.128;4.436;2023-07-13T13:24:45;4.05;;;2.10;;
31920;SDS011;66485;52.128;4.436;2023-07-13T13:27:19;3.65;;;1.80;;
31920;SDS011;66485;52.128;4.436;2023-07-13T13:29:47;3.42;;;1.75;;
31920;SDS011;66485;52.128;4.436;2023-07-13T13:32:16;3.65;;;2.00;;
31920;SDS011;66485;52.128;4.436;2023-07-13T13:34:42;3.22;;;2.13;;
31920;SDS011;66485;52.128;4.436;2023-07-13T13:37:21;3.60;;;1.88;;
31920;SDS011;66485;52.128;4.436;2023-07-13T13:39:48;5.63;;;2.17;;
31920;SDS011;66485;52.128;4.436;2023-07-13T13:42:14;3.92;;;2.35;;
31920;SDS011;66485;52.128;4.436;2023-07-13T13:44:40;4.35;;;2.10;;
31920;SDS011;66485;52.128;4.436;2023-07-13T13:47:39;4.07;;;2.08;;
31920;SDS011;66485;52.128;4.436;2023-07-13T13:49:58;3.78;;;2.03;;
31920;SDS011;66485;52.128;4.436;2023-07-13T13:52:24;3.90;;;1.92;;
31920;SDS011;66485;52.128;4.436;2023-07-13T13:54:50;5.15;;;2.10;;
31920;SDS011;66485;52.128;4.436;2023-07-13T13:57:21;3.63;;;1.85;;
31920;SDS011;66485;52.128;4.436;2023-07-13T13:59:53;3.90;;;1.77;;
31920;SDS011;66485;52.128;4.436;2023-07-13T14:02:22;3.47;;;1.98;;
31920;SDS011;66485;52.128;4.436;2023-07-13T14:04:51;3.33;;;2.20;;
31920;SDS011;66485;52.128;4.436;2023-07-13T14:07:20;2.28;;;1.60;;
31920;SDS011;66485;52.128;4.436;2023-07-13T14:09:45;2.88;;;1.83;;
31920;SDS011;66485;52.128;4.436;2023-07-13T14:12:11;3.88;;;1.80;;
31920;SDS011;66485;52.128;4.436;2023-07-13T14:14:37;2.88;;;1.80;;
31920;SDS011;66485;52.128;4.436;2023-07-13T14:17:03;3.00;;;1.77;;
31920;SDS011;66485;52.128;4.436;2023-07-13T14:19:29;3.30;;;1.80;;
31920;SDS011;66485;52.128;4.436;2023-07-13T14:21:54;2.63;;;1.60;;
31920;SDS011;66485;52.128;4.436;2023-07-13T14:24:19;2.80;;;1.70;;
31920;SDS011;66485;52.128;4.436;2023-07-13T14:26:46;3.78;;;2.00;;
31920;SDS011;66485;52.128;4.436;2023-07-13T14:29:16;2.78;;;1.80;;
31920;SDS011;66485;52.128;4.436;2023-07-13T14:31:43;3.35;;;1.90;;
31920;SDS011;66485;52.128;4.436;2023-07-13T14:34:10;4.07;;;2.00;;
31920;SDS011;66485;52.128;4.436;2023-07-13T14:36:38;4.53;;;1.90;;
31920;SDS011;66485;52.128;4.436;2023-07-13T14:39:14;3.75;;;1.92;;
31920;SDS011;66485;52.128;4.436;2023-07-13T14:41:41;3.97;;;2.00;;
31920;SDS011;66485;52.128;4.436;2023-07-13T14:44:14;4.28;;;1.60;;
31920;SDS011;66485;52.128;4.436;2023-07-13T14:46:40;3.67;;;1.65;;
31920;SDS011;66485;52.128;4.436;2023-07-13T14:52:21;6.18;;;1.83;;
31920;SDS011;66485;52.128;4.436;2023-07-13T14:54:48;2.83;;;1.80;;
31920;SDS011;66485;52.128;4.436;2023-07-13T14:57:15;3.63;;;1.90;;
31920;SDS011;66485;52.128;4.436;2023-07-13T14:59:43;4.15;;;1.80;;
31920;SDS011;66485;52.128;4.436;2023-07-13T15:04:54;2.40;;;1.70;;
31920;SDS011;66485;52.128;4.436;2023-07-13T15:07:19;3.35;;;1.60;;
31920;SDS011;66485;52.128;4.436;2023-07-13T15:09:46;3.15;;;1.67;;
31920;SDS011;66485;52.128;4.436;2023-07-13T15:12:12;2.30;;;1.55;;
31920;SDS011;66485;52.128;4.436;2023-07-13T15:14:38;3.33;;;1.88;;
31920;SDS011;66485;52.128;4.436;2023-07-13T15:17:03;2.78;;;1.77;;
31920;SDS011;66485;52.128;4.436;2023-07-13T15:19:30;4.10;;;1.60;;
31920;SDS011;66485;52.128;4.436;2023-07-13T15:21:56;5.03;;;1.70;;
31920;SDS011;66485;52.128;4.436;2023-07-13T15:24:25;3.25;;;1.58;;
31920;SDS011;66485;52.128;4.436;2023-07-13T15:26:50;4.55;;;1.98;;
31920;SDS011;66485;52.128;4.436;2023-07-13T15:29:17;3.10;;;1.90;;
31920;SDS011;66485;52.128;4.436;2023-07-13T15:31:43;3.08;;;1.80;;
31920;SDS011;66485;52.128;4.436;2023-07-13T15:34:15;3.22;;;1.60;;
31920;SDS011;66485;52.128;4.436;2023-07-13T15:36:43;3.70;;;1.60;;
31920;SDS011;66485;52.128;4.436;2023-07-13T15:39:13;2.42;;;1.42;;
31920;SDS011;66485;52.128;4.436;2023-07-13T15:41:41;3.05;;;1.70;;
31920;SDS011;66485;52.128;4.436;2023-07-13T15:44:19;3.25;;;1.70;;
31920;SDS011;66485;52.128;4.436;2023-07-13T15:46:46;4.93;;;1.63;;
31920;SDS011;66485;52.128;4.436;2023-07-13T15:49:11;4.22;;;2.00;;
31920;SDS011;66485;52.128;4.436;2023-07-13T15:51:36;2.58;;;1.60;;
31920;SDS011;66485;52.128;4.436;2023-07-13T15:54:02;2.72;;;1.60;;